Huvudsida
METAR-TAF:

METAR-TAF

Flygplatser :

Harare, Zimbabwe

latitud: 17-55S, longitud: 031-08E, höjd: 1479 m

METAR: saknas

Tid: 11:56 (09:56 UTC)

Väderprognos

Denna rapport gjordes för 23 timmar och 56 minuter sedan, klockan 10:00 UTC
Prognos gäller från 17 kl. 12 UTC till 18 kl. 18 UTC
Vind 7 kt från ost
Sikt 10 km eller mer
Inga moln under 1 500 m eller inga cumulonimbus

TAF: FVHA 171000Z 1712/1818 08007KT CAVOK

Aktuella väderrapporter och prognoser från 4000 flygplatser (METAR- och TAF-rapporter).

De tillgängliga stationerna syns som gula och röda prickar på kartan.

För musen över prickarna för att se namnen på stationerna.

Klicka sedan för att få väderrapporter och prognoser.

För att ändra kartan: Klicka på de gröna knapparna med ett svart kors på för att zooma in; den gröna knappen med ett streck på för att zooma ut; eller på de gröna pilarna för angränsande kartor.


METAR-TAF: